sensor_id;sensor_type;location;lat;lon;timestamp;P1;durP1;ratioP1;P2;durP2;ratioP2
51252;SDS011;38936;47.808;19.936;2022-10-16T00:02:53;11.23;;;6.18;;
51252;SDS011;38936;47.808;19.936;2022-10-16T00:07:44;12.40;;;5.40;;
51252;SDS011;38936;47.808;19.936;2022-10-16T00:12:35;9.73;;;5.60;;
51252;SDS011;38936;47.808;19.936;2022-10-16T00:17:26;12.95;;;5.47;;
51252;SDS011;38936;47.808;19.936;2022-10-16T00:22:17;15.05;;;5.15;;
51252;SDS011;38936;47.808;19.936;2022-10-16T00:27:08;10.10;;;4.72;;
51252;SDS011;38936;47.808;19.936;2022-10-16T00:31:59;18.13;;;6.32;;
51252;SDS011;38936;47.808;19.936;2022-10-16T00:36:50;14.38;;;4.78;;
51252;SDS011;38936;47.808;19.936;2022-10-16T00:41:41;12.05;;;4.78;;
51252;SDS011;38936;47.808;19.936;2022-10-16T00:46:51;11.48;;;5.60;;
51252;SDS011;38936;47.808;19.936;2022-10-16T00:51:47;11.30;;;5.53;;
51252;SDS011;38936;47.808;19.936;2022-10-16T00:54:20;9.80;;;4.93;;
51252;SDS011;38936;47.808;19.936;2022-10-16T00:56:48;12.32;;;5.03;;
51252;SDS011;38936;47.808;19.936;2022-10-16T00:59:16;9.38;;;5.47;;
51252;SDS011;38936;47.808;19.936;2022-10-16T01:01:51;9.55;;;4.53;;
51252;SDS011;38936;47.808;19.936;2022-10-16T01:04:17;12.73;;;5.35;;
51252;SDS011;38936;47.808;19.936;2022-10-16T01:17:56;14.95;;;4.97;;
51252;SDS011;38936;47.808;19.936;2022-10-16T01:20:42;9.70;;;4.63;;
51252;SDS011;38936;47.808;19.936;2022-10-16T01:25:56;7.88;;;4.72;;
51252;SDS011;38936;47.808;19.936;2022-10-16T01:28:45;7.63;;;4.43;;
51252;SDS011;38936;47.808;19.936;2022-10-16T01:31:18;9.38;;;4.60;;
51252;SDS011;38936;47.808;19.936;2022-10-16T01:33:47;10.23;;;4.57;;
51252;SDS011;38936;47.808;19.936;2022-10-16T01:36:24;11.15;;;4.93;;
51252;SDS011;38936;47.808;19.936;2022-10-16T01:38:55;7.72;;;4.88;;
51252;SDS011;38936;47.808;19.936;2022-10-16T01:41:33;12.02;;;4.85;;
51252;SDS011;38936;47.808;19.936;2022-10-16T01:44:14;14.48;;;5.20;;
51252;SDS011;38936;47.808;19.936;2022-10-16T01:46:45;8.20;;;4.28;;
51252;SDS011;38936;47.808;19.936;2022-10-16T01:49:15;10.43;;;5.03;;
51252;SDS011;38936;47.808;19.936;2022-10-16T01:51:43;8.90;;;5.03;;
51252;SDS011;38936;47.808;19.936;2022-10-16T01:54:12;10.32;;;4.78;;
51252;SDS011;38936;47.808;19.936;2022-10-16T01:56:41;15.52;;;5.35;;
51252;SDS011;38936;47.808;19.936;2022-10-16T01:59:12;12.00;;;4.80;;
51252;SDS011;38936;47.808;19.936;2022-10-16T02:01:41;7.60;;;4.45;;
51252;SDS011;38936;47.808;19.936;2022-10-16T02:04:23;8.32;;;4.97;;
51252;SDS011;38936;47.808;19.936;2022-10-16T02:06:53;14.90;;;5.38;;
51252;SDS011;38936;47.808;19.936;2022-10-16T02:09:19;12.23;;;5.07;;
51252;SDS011;38936;47.808;19.936;2022-10-16T02:14:10;7.03;;;4.35;;
51252;SDS011;38936;47.808;19.936;2022-10-16T02:19:04;7.55;;;4.55;;
51252;SDS011;38936;47.808;19.936;2022-10-16T02:27:46;13.68;;;4.72;;
51252;SDS011;38936;47.808;19.936;2022-10-16T02:29:59;13.27;;;4.75;;
51252;SDS011;38936;47.808;19.936;2022-10-16T02:32:49;13.88;;;4.85;;
51252;SDS011;38936;47.808;19.936;2022-10-16T02:35:17;10.60;;;5.50;;
51252;SDS011;38936;47.808;19.936;2022-10-16T02:37:44;9.93;;;4.95;;
51252;SDS011;38936;47.808;19.936;2022-10-16T02:40:11;9.32;;;4.88;;
51252;SDS011;38936;47.808;19.936;2022-10-16T02:42:39;12.10;;;4.45;;
51252;SDS011;38936;47.808;19.936;2022-10-16T02:45:05;11.15;;;4.80;;
51252;SDS011;38936;47.808;19.936;2022-10-16T02:47:33;11.48;;;5.40;;
51252;SDS011;38936;47.808;19.936;2022-10-16T02:52:24;11.52;;;4.55;;
51252;SDS011;38936;47.808;19.936;2022-10-16T02:57:16;15.55;;;4.38;;
51252;SDS011;38936;47.808;19.936;2022-10-16T03:02:07;12.75;;;4.78;;
51252;SDS011;38936;47.808;19.936;2022-10-16T03:06:58;10.98;;;4.72;;
51252;SDS011;38936;47.808;19.936;2022-10-16T03:11:49;9.05;;;5.47;;
51252;SDS011;38936;47.808;19.936;2022-10-16T03:16:40;12.82;;;4.95;;
51252;SDS011;38936;47.808;19.936;2022-10-16T03:21:32;12.45;;;6.07;;
51252;SDS011;38936;47.808;19.936;2022-10-16T03:26:23;13.35;;;5.50;;
51252;SDS011;38936;47.808;19.936;2022-10-16T03:31:14;11.65;;;6.70;;
51252;SDS011;38936;47.808;19.936;2022-10-16T03:36:05;13.93;;;5.88;;
51252;SDS011;38936;47.808;19.936;2022-10-16T03:38:31;10.48;;;5.88;;
51252;SDS011;38936;47.808;19.936;2022-10-16T03:43:22;13.18;;;6.47;;
51252;SDS011;38936;47.808;19.936;2022-10-16T03:48:15;13.75;;;5.95;;
51252;SDS011;38936;47.808;19.936;2022-10-16T03:53:06;12.40;;;6.38;;
51252;SDS011;38936;47.808;19.936;2022-10-16T03:57:57;10.30;;;5.50;;
51252;SDS011;38936;47.808;19.936;2022-10-16T04:02:48;12.30;;;6.18;;
51252;SDS011;38936;47.808;19.936;2022-10-16T04:07:39;7.68;;;5.03;;
51252;SDS011;38936;47.808;19.936;2022-10-16T04:12:30;11.80;;;5.15;;
51252;SDS011;38936;47.808;19.936;2022-10-16T04:17:22;10.60;;;6.22;;
51252;SDS011;38936;47.808;19.936;2022-10-16T04:22:13;14.98;;;5.85;;
51252;SDS011;38936;47.808;19.936;2022-10-16T04:27:04;11.02;;;6.40;;
51252;SDS011;38936;47.808;19.936;2022-10-16T04:31:55;9.98;;;6.13;;
51252;SDS011;38936;47.808;19.936;2022-10-16T04:36:49;10.77;;;5.82;;
51252;SDS011;38936;47.808;19.936;2022-10-16T04:39:15;14.95;;;6.45;;
51252;SDS011;38936;47.808;19.936;2022-10-16T04:41:41;18.75;;;7.88;;
51252;SDS011;38936;47.808;19.936;2022-10-16T04:46:33;14.57;;;7.28;;
51252;SDS011;38936;47.808;19.936;2022-10-16T04:51:24;15.48;;;7.20;;
51252;SDS011;38936;47.808;19.936;2022-10-16T04:53:50;18.73;;;6.75;;
51252;SDS011;38936;47.808;19.936;2022-10-16T04:58:42;17.10;;;7.30;;
51252;SDS011;38936;47.808;19.936;2022-10-16T05:03:33;20.17;;;8.25;;
51252;SDS011;38936;47.808;19.936;2022-10-16T05:08:25;13.27;;;6.70;;
51252;SDS011;38936;47.808;19.936;2022-10-16T05:13:16;14.13;;;6.47;;
51252;SDS011;38936;47.808;19.936;2022-10-16T05:18:08;15.90;;;6.68;;
51252;SDS011;38936;47.808;19.936;2022-10-16T05:20:33;19.13;;;6.80;;
51252;SDS011;38936;47.808;19.936;2022-10-16T05:25:25;11.13;;;5.82;;
51252;SDS011;38936;47.808;19.936;2022-10-16T05:30:16;10.30;;;6.40;;
51252;SDS011;38936;47.808;19.936;2022-10-16T05:32:46;13.05;;;5.72;;
51252;SDS011;38936;47.808;19.936;2022-10-16T05:35:13;11.80;;;6.18;;
51252;SDS011;38936;47.808;19.936;2022-10-16T05:40:04;18.00;;;7.47;;
51252;SDS011;38936;47.808;19.936;2022-10-16T05:42:30;12.05;;;6.40;;
51252;SDS011;38936;47.808;19.936;2022-10-16T05:47:21;15.60;;;7.30;;
51252;SDS011;38936;47.808;19.936;2022-10-16T05:52:12;15.57;;;6.43;;
51252;SDS011;38936;47.808;19.936;2022-10-16T05:57:04;17.67;;;6.80;;
51252;SDS011;38936;47.808;19.936;2022-10-16T05:59:30;16.02;;;6.40;;
51252;SDS011;38936;47.808;19.936;2022-10-16T06:01:56;14.52;;;6.63;;
51252;SDS011;38936;47.808;19.936;2022-10-16T06:06:48;9.05;;;5.28;;
51252;SDS011;38936;47.808;19.936;2022-10-16T06:11:39;13.77;;;5.30;;
51252;SDS011;38936;47.808;19.936;2022-10-16T06:16:34;15.88;;;5.40;;
51252;SDS011;38936;47.808;19.936;2022-10-16T06:19:01;10.75;;;5.07;;
51252;SDS011;38936;47.808;19.936;2022-10-16T06:21:29;10.30;;;5.53;;
51252;SDS011;38936;47.808;19.936;2022-10-16T06:26:21;15.57;;;5.40;;
51252;SDS011;38936;47.808;19.936;2022-10-16T06:28:49;12.07;;;5.28;;
51252;SDS011;38936;47.808;19.936;2022-10-16T06:33:41;14.27;;;4.88;;
51252;SDS011;38936;47.808;19.936;2022-10-16T06:36:14;22.13;;;4.10;;
51252;SDS011;38936;47.808;19.936;2022-10-16T06:38:42;7.15;;;4.03;;
51252;SDS011;38936;47.808;19.936;2022-10-16T06:41:09;10.90;;;3.72;;
51252;SDS011;38936;47.808;19.936;2022-10-16T06:43:37;12.85;;;3.88;;
51252;SDS011;38936;47.808;19.936;2022-10-16T06:46:03;12.05;;;4.32;;
51252;SDS011;38936;47.808;19.936;2022-10-16T06:48:30;11.85;;;4.13;;
51252;SDS011;38936;47.808;19.936;2022-10-16T06:51:00;13.48;;;4.13;;
51252;SDS011;38936;47.808;19.936;2022-10-16T06:53:28;15.90;;;5.20;;
51252;SDS011;38936;47.808;19.936;2022-10-16T06:55:56;12.63;;;4.28;;
51252;SDS011;38936;47.808;19.936;2022-10-16T06:58:22;17.15;;;3.78;;
51252;SDS011;38936;47.808;19.936;2022-10-16T07:00:48;8.52;;;4.13;;
51252;SDS011;38936;47.808;19.936;2022-10-16T07:03:14;11.52;;;3.97;;
51252;SDS011;38936;47.808;19.936;2022-10-16T07:05:40;7.35;;;3.75;;
51252;SDS011;38936;47.808;19.936;2022-10-16T07:08:07;10.35;;;4.60;;
51252;SDS011;38936;47.808;19.936;2022-10-16T07:10:33;20.08;;;4.80;;
51252;SDS011;38936;47.808;19.936;2022-10-16T07:12:59;10.48;;;4.50;;
51252;SDS011;38936;47.808;19.936;2022-10-16T07:15:25;8.00;;;3.90;;
51252;SDS011;38936;47.808;19.936;2022-10-16T07:17:51;8.70;;;3.97;;
51252;SDS011;38936;47.808;19.936;2022-10-16T07:20:17;7.18;;;3.80;;
51252;SDS011;38936;47.808;19.936;2022-10-16T07:22:42;5.50;;;3.10;;
51252;SDS011;38936;47.808;19.936;2022-10-16T07:25:08;8.18;;;3.78;;
51252;SDS011;38936;47.808;19.936;2022-10-16T07:27:34;8.93;;;3.80;;
51252;SDS011;38936;47.808;19.936;2022-10-16T07:30:00;8.05;;;4.43;;
51252;SDS011;38936;47.808;19.936;2022-10-16T07:32:26;14.88;;;4.75;;
51252;SDS011;38936;47.808;19.936;2022-10-16T07:34:52;10.48;;;4.53;;
51252;SDS011;38936;47.808;19.936;2022-10-16T07:37:18;13.45;;;4.13;;
51252;SDS011;38936;47.808;19.936;2022-10-16T07:39:44;8.38;;;4.40;;
51252;SDS011;38936;47.808;19.936;2022-10-16T07:42:09;6.47;;;3.38;;
51252;SDS011;38936;47.808;19.936;2022-10-16T07:44:35;7.75;;;4.15;;
51252;SDS011;38936;47.808;19.936;2022-10-16T07:47:01;9.40;;;3.97;;
51252;SDS011;38936;47.808;19.936;2022-10-16T07:49:26;7.38;;;4.00;;
51252;SDS011;38936;47.808;19.936;2022-10-16T07:51:52;9.13;;;4.40;;
51252;SDS011;38936;47.808;19.936;2022-10-16T07:54:18;11.13;;;3.90;;
51252;SDS011;38936;47.808;19.936;2022-10-16T07:56:43;10.30;;;4.07;;
51252;SDS011;38936;47.808;19.936;2022-10-16T07:59:09;7.50;;;4.68;;
51252;SDS011;38936;47.808;19.936;2022-10-16T08:01:35;12.15;;;4.43;;
51252;SDS011;38936;47.808;19.936;2022-10-16T08:04:00;17.08;;;4.32;;
51252;SDS011;38936;47.808;19.936;2022-10-16T08:06:26;17.27;;;4.95;;
51252;SDS011;38936;47.808;19.936;2022-10-16T08:08:51;9.15;;;3.97;;
51252;SDS011;38936;47.808;19.936;2022-10-16T08:11:17;9.20;;;3.70;;
51252;SDS011;38936;47.808;19.936;2022-10-16T08:13:43;9.60;;;3.67;;
51252;SDS011;38936;47.808;19.936;2022-10-16T08:16:08;8.90;;;3.90;;
51252;SDS011;38936;47.808;19.936;2022-10-16T08:18:35;10.73;;;3.90;;
51252;SDS011;38936;47.808;19.936;2022-10-16T08:21:02;11.40;;;3.65;;
51252;SDS011;38936;47.808;19.936;2022-10-16T08:23:29;14.20;;;4.30;;
51252;SDS011;38936;47.808;19.936;2022-10-16T08:25:55;10.00;;;4.05;;
51252;SDS011;38936;47.808;19.936;2022-10-16T08:28:26;7.75;;;4.15;;
51252;SDS011;38936;47.808;19.936;2022-10-16T08:30:52;11.20;;;4.60;;
51252;SDS011;38936;47.808;19.936;2022-10-16T08:33:17;9.57;;;4.30;;
51252;SDS011;38936;47.808;19.936;2022-10-16T08:35:49;9.43;;;4.20;;
51252;SDS011;38936;47.808;19.936;2022-10-16T08:38:16;8.82;;;4.13;;
51252;SDS011;38936;47.808;19.936;2022-10-16T08:40:42;12.60;;;5.57;;
51252;SDS011;38936;47.808;19.936;2022-10-16T08:43:12;8.70;;;4.18;;
51252;SDS011;38936;47.808;19.936;2022-10-16T08:45:52;10.98;;;4.28;;
51252;SDS011;38936;47.808;19.936;2022-10-16T08:48:44;7.72;;;4.05;;
51252;SDS011;38936;47.808;19.936;2022-10-16T08:51:11;13.25;;;4.22;;
51252;SDS011;38936;47.808;19.936;2022-10-16T08:53:55;14.85;;;6.00;;
51252;SDS011;38936;47.808;19.936;2022-10-16T08:56:21;10.55;;;4.30;;
51252;SDS011;38936;47.808;19.936;2022-10-16T08:58:47;10.93;;;4.10;;
51252;SDS011;38936;47.808;19.936;2022-10-16T09:01:15;12.25;;;4.55;;
51252;SDS011;38936;47.808;19.936;2022-10-16T09:06:45;7.25;;;4.20;;
51252;SDS011;38936;47.808;19.936;2022-10-16T09:11:53;8.63;;;3.95;;
51252;SDS011;38936;47.808;19.936;2022-10-16T09:17:22;7.10;;;4.60;;
51252;SDS011;38936;47.808;19.936;2022-10-16T09:20:41;7.53;;;4.72;;
51252;SDS011;38936;47.808;19.936;2022-10-16T09:22:45;9.98;;;4.63;;
51252;SDS011;38936;47.808;19.936;2022-10-16T09:25:15;8.70;;;4.20;;
51252;SDS011;38936;47.808;19.936;2022-10-16T09:27:45;6.55;;;4.50;;
51252;SDS011;38936;47.808;19.936;2022-10-16T09:30:13;8.02;;;3.67;;
51252;SDS011;38936;47.808;19.936;2022-10-16T09:32:41;7.38;;;4.40;;
51252;SDS011;38936;47.808;19.936;2022-10-16T09:35:13;6.90;;;4.10;;
51252;SDS011;38936;47.808;19.936;2022-10-16T09:37:56;9.35;;;4.68;;
51252;SDS011;38936;47.808;19.936;2022-10-16T09:40:29;14.30;;;4.40;;
51252;SDS011;38936;47.808;19.936;2022-10-16T09:45:42;15.02;;;3.17;;
51252;SDS011;38936;47.808;19.936;2022-10-16T09:48:18;8.05;;;4.05;;
51252;SDS011;38936;47.808;19.936;2022-10-16T09:50:54;8.40;;;4.00;;
51252;SDS011;38936;47.808;19.936;2022-10-16T09:53:21;6.20;;;3.65;;
51252;SDS011;38936;47.808;19.936;2022-10-16T09:55:51;7.68;;;3.75;;
51252;SDS011;38936;47.808;19.936;2022-10-16T09:58:18;6.18;;;3.83;;
51252;SDS011;38936;47.808;19.936;2022-10-16T10:00:50;9.48;;;3.50;;
51252;SDS011;38936;47.808;19.936;2022-10-16T10:06:21;5.75;;;3.22;;
51252;SDS011;38936;47.808;19.936;2022-10-16T10:09:03;7.22;;;3.72;;
51252;SDS011;38936;47.808;19.936;2022-10-16T10:14:51;7.93;;;4.05;;
51252;SDS011;38936;47.808;19.936;2022-10-16T10:19:36;7.28;;;3.97;;
51252;SDS011;38936;47.808;19.936;2022-10-16T10:27:50;7.72;;;3.85;;
51252;SDS011;38936;47.808;19.936;2022-10-16T10:38:48;8.43;;;3.38;;
51252;SDS011;38936;47.808;19.936;2022-10-16T10:44:15;6.47;;;3.67;;
51252;SDS011;38936;47.808;19.936;2022-10-16T10:46:45;8.35;;;3.88;;
51252;SDS011;38936;47.808;19.936;2022-10-16T11:02:54;7.80;;;3.58;;
51252;SDS011;38936;47.808;19.936;2022-10-16T11:05:43;8.05;;;3.58;;
51252;SDS011;38936;47.808;19.936;2022-10-16T11:08:17;8.57;;;3.67;;
51252;SDS011;38936;47.808;19.936;2022-10-16T11:24:47;8.02;;;3.63;;
51252;SDS011;38936;47.808;19.936;2022-10-16T11:33:30;13.55;;;3.63;;
51252;SDS011;38936;47.808;19.936;2022-10-16T11:41:24;10.10;;;3.78;;
51252;SDS011;38936;47.808;19.936;2022-10-16T11:44:14;8.75;;;3.13;;
51252;SDS011;38936;47.808;19.936;2022-10-16T11:46:53;5.50;;;3.08;;
51252;SDS011;38936;47.808;19.936;2022-10-16T11:49:34;7.22;;;3.60;;
51252;SDS011;38936;47.808;19.936;2022-10-16T11:52:06;10.00;;;3.15;;
51252;SDS011;38936;47.808;19.936;2022-10-16T11:54:42;9.48;;;3.63;;
51252;SDS011;38936;47.808;19.936;2022-10-16T11:57:16;10.52;;;3.47;;
51252;SDS011;38936;47.808;19.936;2022-10-16T11:59:47;11.00;;;3.75;;
51252;SDS011;38936;47.808;19.936;2022-10-16T12:07:41;7.47;;;3.08;;
51252;SDS011;38936;47.808;19.936;2022-10-16T12:10:20;7.75;;;2.78;;
51252;SDS011;38936;47.808;19.936;2022-10-16T12:12:48;9.40;;;3.75;;
51252;SDS011;38936;47.808;19.936;2022-10-16T12:17:48;9.27;;;3.78;;
51252;SDS011;38936;47.808;19.936;2022-10-16T12:22:56;7.88;;;3.03;;
51252;SDS011;38936;47.808;19.936;2022-10-16T12:25:26;5.70;;;2.90;;
51252;SDS011;38936;47.808;19.936;2022-10-16T12:28:03;6.38;;;3.53;;
51252;SDS011;38936;47.808;19.936;2022-10-16T12:30:51;7.25;;;2.90;;
51252;SDS011;38936;47.808;19.936;2022-10-16T12:35:49;4.78;;;2.38;;
51252;SDS011;38936;47.808;19.936;2022-10-16T12:38:16;4.65;;;2.50;;
51252;SDS011;38936;47.808;19.936;2022-10-16T12:41:04;4.85;;;2.75;;
51252;SDS011;38936;47.808;19.936;2022-10-16T12:48:36;9.77;;;2.88;;
51252;SDS011;38936;47.808;19.936;2022-10-16T12:51:12;7.68;;;3.50;;
51252;SDS011;38936;47.808;19.936;2022-10-16T13:10:55;11.15;;;2.58;;
51252;SDS011;38936;47.808;19.936;2022-10-16T13:22:32;10.90;;;2.53;;
51252;SDS011;38936;47.808;19.936;2022-10-16T13:27:35;12.60;;;3.40;;
51252;SDS011;38936;47.808;19.936;2022-10-16T13:35:31;10.57;;;2.50;;
51252;SDS011;38936;47.808;19.936;2022-10-16T13:40:36;7.05;;;2.03;;
51252;SDS011;38936;47.808;19.936;2022-10-16T13:43:02;4.82;;;2.40;;
51252;SDS011;38936;47.808;19.936;2022-10-16T13:45:27;3.80;;;1.92;;
51252;SDS011;38936;47.808;19.936;2022-10-16T13:48:11;8.05;;;2.05;;
51252;SDS011;38936;47.808;19.936;2022-10-16T13:50:37;6.78;;;2.30;;
51252;SDS011;38936;47.808;19.936;2022-10-16T13:53:06;7.30;;;2.13;;
51252;SDS011;38936;47.808;19.936;2022-10-16T13:55:32;5.90;;;2.00;;
51252;SDS011;38936;47.808;19.936;2022-10-16T13:58:08;7.78;;;2.78;;
51252;SDS011;38936;47.808;19.936;2022-10-16T14:00:38;4.72;;;2.30;;
51252;SDS011;38936;47.808;19.936;2022-10-16T14:03:05;5.45;;;2.53;;
51252;SDS011;38936;47.808;19.936;2022-10-16T14:05:42;6.82;;;2.53;;
51252;SDS011;38936;47.808;19.936;2022-10-16T14:08:24;5.45;;;1.90;;
51252;SDS011;38936;47.808;19.936;2022-10-16T14:10:52;4.07;;;2.35;;
51252;SDS011;38936;47.808;19.936;2022-10-16T14:13:25;6.15;;;2.42;;
51252;SDS011;38936;47.808;19.936;2022-10-16T14:16:08;6.07;;;2.42;;
51252;SDS011;38936;47.808;19.936;2022-10-16T14:18:40;3.35;;;2.00;;
51252;SDS011;38936;47.808;19.936;2022-10-16T14:21:06;5.88;;;2.67;;
51252;SDS011;38936;47.808;19.936;2022-10-16T14:23:37;5.57;;;2.30;;
51252;SDS011;38936;47.808;19.936;2022-10-16T14:26:16;6.88;;;2.13;;
51252;SDS011;38936;47.808;19.936;2022-10-16T14:28:44;8.40;;;3.55;;
51252;SDS011;38936;47.808;19.936;2022-10-16T14:33:45;17.40;;;8.18;;
51252;SDS011;38936;47.808;19.936;2022-10-16T14:36:14;10.32;;;5.57;;
51252;SDS011;38936;47.808;19.936;2022-10-16T14:38:43;8.55;;;3.63;;
51252;SDS011;38936;47.808;19.936;2022-10-16T14:41:20;12.25;;;2.97;;
51252;SDS011;38936;47.808;19.936;2022-10-16T14:43:50;5.80;;;2.80;;
51252;SDS011;38936;47.808;19.936;2022-10-16T14:46:19;9.85;;;2.58;;
51252;SDS011;38936;47.808;19.936;2022-10-16T14:48:47;8.38;;;2.38;;
51252;SDS011;38936;47.808;19.936;2022-10-16T14:51:15;9.40;;;2.10;;
51252;SDS011;38936;47.808;19.936;2022-10-16T14:53:44;28.88;;;3.60;;
51252;SDS011;38936;47.808;19.936;2022-10-16T14:56:29;9.50;;;2.22;;
51252;SDS011;38936;47.808;19.936;2022-10-16T14:59:00;21.95;;;2.13;;
51252;SDS011;38936;47.808;19.936;2022-10-16T15:01:38;7.20;;;2.58;;
51252;SDS011;38936;47.808;19.936;2022-10-16T15:04:03;4.88;;;1.90;;
51252;SDS011;38936;47.808;19.936;2022-10-16T15:06:29;8.77;;;3.55;;
51252;SDS011;38936;47.808;19.936;2022-10-16T15:08:55;6.80;;;2.65;;
51252;SDS011;38936;47.808;19.936;2022-10-16T15:11:20;5.05;;;2.47;;
51252;SDS011;38936;47.808;19.936;2022-10-16T15:13:46;6.75;;;2.90;;
51252;SDS011;38936;47.808;19.936;2022-10-16T15:16:13;7.65;;;2.10;;
51252;SDS011;38936;47.808;19.936;2022-10-16T15:18:40;5.68;;;2.10;;
51252;SDS011;38936;47.808;19.936;2022-10-16T15:21:07;11.55;;;2.20;;
51252;SDS011;38936;47.808;19.936;2022-10-16T15:23:33;9.15;;;5.97;;
51252;SDS011;38936;47.808;19.936;2022-10-16T15:25:59;13.43;;;6.30;;
51252;SDS011;38936;47.808;19.936;2022-10-16T15:28:25;11.15;;;3.38;;
51252;SDS011;38936;47.808;19.936;2022-10-16T15:30:52;7.93;;;2.97;;
51252;SDS011;38936;47.808;19.936;2022-10-16T15:33:20;9.85;;;3.33;;
51252;SDS011;38936;47.808;19.936;2022-10-16T15:35:48;17.50;;;3.88;;
51252;SDS011;38936;47.808;19.936;2022-10-16T15:38:16;8.07;;;2.72;;
51252;SDS011;38936;47.808;19.936;2022-10-16T15:40:42;15.10;;;2.78;;
51252;SDS011;38936;47.808;19.936;2022-10-16T15:43:08;8.65;;;2.60;;
51252;SDS011;38936;47.808;19.936;2022-10-16T15:45:34;13.55;;;3.08;;
51252;SDS011;38936;47.808;19.936;2022-10-16T15:48:00;13.90;;;3.50;;
51252;SDS011;38936;47.808;19.936;2022-10-16T15:50:26;20.55;;;10.93;;
51252;SDS011;38936;47.808;19.936;2022-10-16T15:52:52;25.48;;;15.20;;
51252;SDS011;38936;47.808;19.936;2022-10-16T15:55:17;37.20;;;24.30;;
51252;SDS011;38936;47.808;19.936;2022-10-16T15:57:43;21.92;;;11.13;;
51252;SDS011;38936;47.808;19.936;2022-10-16T16:00:17;17.10;;;10.18;;
51252;SDS011;38936;47.808;19.936;2022-10-16T16:02:50;16.17;;;7.30;;
51252;SDS011;38936;47.808;19.936;2022-10-16T16:05:17;13.93;;;8.23;;
51252;SDS011;38936;47.808;19.936;2022-10-16T16:07:44;14.60;;;8.85;;
51252;SDS011;38936;47.808;19.936;2022-10-16T16:12:36;22.75;;;10.50;;
51252;SDS011;38936;47.808;19.936;2022-10-16T16:15:03;18.48;;;11.32;;
51252;SDS011;38936;47.808;19.936;2022-10-16T16:17:30;20.77;;;10.70;;
51252;SDS011;38936;47.808;19.936;2022-10-16T16:19:57;26.80;;;10.00;;
51252;SDS011;38936;47.808;19.936;2022-10-16T16:24:48;16.83;;;8.18;;
51252;SDS011;38936;47.808;19.936;2022-10-16T16:29:40;25.23;;;11.90;;
51252;SDS011;38936;47.808;19.936;2022-10-16T16:34:32;22.95;;;14.60;;
51252;SDS011;38936;47.808;19.936;2022-10-16T16:39:23;10.55;;;5.93;;
51252;SDS011;38936;47.808;19.936;2022-10-16T16:41:49;21.65;;;11.73;;
51252;SDS011;38936;47.808;19.936;2022-10-16T16:46:42;15.05;;;7.20;;
51252;SDS011;38936;47.808;19.936;2022-10-16T16:49:10;15.55;;;8.18;;
51252;SDS011;38936;47.808;19.936;2022-10-16T16:51:37;16.75;;;8.50;;
51252;SDS011;38936;47.808;19.936;2022-10-16T16:54:03;24.13;;;11.20;;
51252;SDS011;38936;47.808;19.936;2022-10-16T16:56:29;12.43;;;7.30;;
51252;SDS011;38936;47.808;19.936;2022-10-16T17:01:22;19.63;;;9.05;;
51252;SDS011;38936;47.808;19.936;2022-10-16T17:03:50;19.38;;;8.05;;
51252;SDS011;38936;47.808;19.936;2022-10-16T17:06:18;22.55;;;11.23;;
51252;SDS011;38936;47.808;19.936;2022-10-16T17:08:46;15.98;;;7.57;;
51252;SDS011;38936;47.808;19.936;2022-10-16T17:11:13;11.82;;;6.47;;
51252;SDS011;38936;47.808;19.936;2022-10-16T17:13:41;24.30;;;9.65;;
51252;SDS011;38936;47.808;19.936;2022-10-16T17:18:33;28.30;;;12.57;;
51252;SDS011;38936;47.808;19.936;2022-10-16T17:21:03;23.25;;;12.05;;
51252;SDS011;38936;47.808;19.936;2022-10-16T17:23:31;19.15;;;10.07;;
51252;SDS011;38936;47.808;19.936;2022-10-16T17:26:02;17.02;;;8.45;;
51252;SDS011;38936;47.808;19.936;2022-10-16T17:28:32;14.43;;;6.13;;
51252;SDS011;38936;47.808;19.936;2022-10-16T17:33:33;11.80;;;5.53;;
51252;SDS011;38936;47.808;19.936;2022-10-16T17:38:24;10.27;;;4.65;;
51252;SDS011;38936;47.808;19.936;2022-10-16T17:43:15;10.85;;;4.28;;
51252;SDS011;38936;47.808;19.936;2022-10-16T17:48:06;10.73;;;5.90;;
51252;SDS011;38936;47.808;19.936;2022-10-16T17:52:58;15.18;;;6.55;;
51252;SDS011;38936;47.808;19.936;2022-10-16T17:57:49;13.52;;;5.80;;
51252;SDS011;38936;47.808;19.936;2022-10-16T18:00:17;15.30;;;6.55;;
51252;SDS011;38936;47.808;19.936;2022-10-16T18:05:08;12.23;;;5.78;;
51252;SDS011;38936;47.808;19.936;2022-10-16T18:07:35;13.57;;;6.90;;
51252;SDS011;38936;47.808;19.936;2022-10-16T18:12:31;12.55;;;4.50;;
51252;SDS011;38936;47.808;19.936;2022-10-16T18:14:57;8.85;;;4.18;;
51252;SDS011;38936;47.808;19.936;2022-10-16T18:19:48;24.45;;;9.98;;
51252;SDS011;38936;47.808;19.936;2022-10-16T18:22:14;30.17;;;13.80;;
51252;SDS011;38936;47.808;19.936;2022-10-16T18:27:06;20.85;;;9.80;;
51252;SDS011;38936;47.808;19.936;2022-10-16T18:31:57;29.05;;;13.85;;
51252;SDS011;38936;47.808;19.936;2022-10-16T18:36:50;46.13;;;23.38;;
51252;SDS011;38936;47.808;19.936;2022-10-16T18:41:42;37.53;;;19.85;;
51252;SDS011;38936;47.808;19.936;2022-10-16T18:44:11;17.88;;;9.05;;
51252;SDS011;38936;47.808;19.936;2022-10-16T18:46:38;17.77;;;8.80;;
51252;SDS011;38936;47.808;19.936;2022-10-16T18:49:04;13.77;;;5.38;;
51252;SDS011;38936;47.808;19.936;2022-10-16T18:51:32;11.80;;;4.03;;
51252;SDS011;38936;47.808;19.936;2022-10-16T18:54:00;9.25;;;4.40;;
51252;SDS011;38936;47.808;19.936;2022-10-16T18:56:29;12.30;;;5.78;;
51252;SDS011;38936;47.808;19.936;2022-10-16T18:58:55;16.23;;;5.55;;
51252;SDS011;38936;47.808;19.936;2022-10-16T19:01:24;17.30;;;9.18;;
51252;SDS011;38936;47.808;19.936;2022-10-16T19:03:53;35.92;;;18.92;;
51252;SDS011;38936;47.808;19.936;2022-10-16T19:06:23;20.90;;;11.48;;
51252;SDS011;38936;47.808;19.936;2022-10-16T19:08:49;25.60;;;11.07;;
51252;SDS011;38936;47.808;19.936;2022-10-16T19:13:43;16.65;;;9.18;;
51252;SDS011;38936;47.808;19.936;2022-10-16T19:16:19;17.27;;;9.80;;
51252;SDS011;38936;47.808;19.936;2022-10-16T19:18:51;31.77;;;17.55;;
51252;SDS011;38936;47.808;19.936;2022-10-16T19:21:18;26.73;;;15.00;;
51252;SDS011;38936;47.808;19.936;2022-10-16T19:23:44;29.27;;;16.90;;
51252;SDS011;38936;47.808;19.936;2022-10-16T19:26:12;27.73;;;16.00;;
51252;SDS011;38936;47.808;19.936;2022-10-16T19:28:41;39.47;;;22.55;;
51252;SDS011;38936;47.808;19.936;2022-10-16T19:31:09;40.17;;;20.95;;
51252;SDS011;38936;47.808;19.936;2022-10-16T19:33:37;45.00;;;22.98;;
51252;SDS011;38936;47.808;19.936;2022-10-16T19:36:07;40.60;;;23.38;;
51252;SDS011;38936;47.808;19.936;2022-10-16T19:38:34;41.22;;;23.95;;
51252;SDS011;38936;47.808;19.936;2022-10-16T19:43:32;32.45;;;16.58;;
51252;SDS011;38936;47.808;19.936;2022-10-16T19:48:48;22.27;;;11.48;;
51252;SDS011;38936;47.808;19.936;2022-10-16T19:51:18;14.88;;;7.80;;
51252;SDS011;38936;47.808;19.936;2022-10-16T19:56:14;28.90;;;14.57;;
51252;SDS011;38936;47.808;19.936;2022-10-16T19:58:45;24.08;;;13.65;;
51252;SDS011;38936;47.808;19.936;2022-10-16T20:01:12;23.58;;;11.30;;
51252;SDS011;38936;47.808;19.936;2022-10-16T20:03:39;20.95;;;10.48;;
51252;SDS011;38936;47.808;19.936;2022-10-16T20:06:07;28.95;;;14.60;;
51252;SDS011;38936;47.808;19.936;2022-10-16T20:08:33;24.85;;;14.32;;
51252;SDS011;38936;47.808;19.936;2022-10-16T20:11:00;25.30;;;14.02;;
51252;SDS011;38936;47.808;19.936;2022-10-16T20:13:27;21.58;;;11.57;;
51252;SDS011;38936;47.808;19.936;2022-10-16T20:15:53;22.90;;;12.20;;
51252;SDS011;38936;47.808;19.936;2022-10-16T20:20:45;20.20;;;12.10;;